Time;durP1;ratioP1;P1;durP2;ratioP2;P2;SDS_P1;SDS_P2;PMS_P1;PMS_P2;Temp;Humidity;BMP_temperature;BMP_pressure;BME280_temperature;BME280_humidity;BME280_pressure;Samples;Min_cycle;Max_cycle;Signal;HPM_P1;HPM_P2
2022/01/15 00:00:35;;;;;;;9.40;4.55;;;6.60;99.90;;;;;;5087232;28;20496;-69
2022/01/15 00:03:03;;;;;;;8.38;4.00;;;6.80;99.90;;;;;;5078579;28;20044;-69
2022/01/15 00:05:30;;;;;;;7.88;4.28;;;6.60;99.90;;;;;;5086161;28;20484;-69
2022/01/15 00:07:57;;;;;;;7.88;4.45;;;6.60;99.90;;;;;;5070103;28;20043;-69
2022/01/15 00:10:26;;;;;;;6.00;3.97;;;6.60;99.90;;;;;;5070744;28;20098;-69
2022/01/15 00:12:53;;;;;;;7.55;4.20;;;6.50;99.90;;;;;;5087831;28;20044;-69
2022/01/15 00:15:25;;;;;;;7.65;4.18;;;6.50;99.90;;;;;;5078593;28;20110;-69
2022/01/15 00:18:11;;;;;;;6.95;4.18;;;6.60;99.90;;;;;;5072581;28;20052;-69
2022/01/15 00:20:37;;;;;;;6.97;3.55;;;6.60;99.90;;;;;;5070607;28;20044;-69
2022/01/15 00:23:03;;;;;;;6.07;3.33;;;6.50;99.90;;;;;;5086842;28;21056;-69
2022/01/15 00:25:31;;;;;;;7.65;3.95;;;7.30;99.90;;;;;;5080916;28;20322;-69
2022/01/15 00:27:57;;;;;;;6.90;4.05;;;7.00;99.90;;;;;;5082479;28;20040;-69
2022/01/15 00:30:24;;;;;;;8.85;3.95;;;6.70;99.90;;;;;;5085712;28;20035;-69
2022/01/15 00:32:52;;;;;;;5.63;3.78;;;6.50;99.90;;;;;;5076994;28;20035;-69
2022/01/15 00:35:19;;;;;;;7.88;3.92;;;6.50;99.90;;;;;;5072629;28;20042;-69
2022/01/15 00:37:45;;;;;;;6.43;3.65;;;6.50;99.90;;;;;;5079713;28;20134;-69
2022/01/15 00:40:15;;;;;;;9.20;3.67;;;6.50;99.90;;;;;;5071132;28;20044;-69
2022/01/15 00:42:41;;;;;;;7.28;3.78;;;6.50;99.90;;;;;;5081707;28;20074;-69
2022/01/15 00:45:12;;;;;;;7.10;3.88;;;6.50;99.90;;;;;;5088775;28;20109;-69
2022/01/15 00:47:38;;;;;;;7.13;3.85;;;6.50;99.90;;;;;;5068582;28;20086;-70
2022/01/15 00:50:06;;;;;;;6.68;3.58;;;6.50;99.90;;;;;;5081367;28;20051;-70
2022/01/15 00:52:32;;;;;;;6.28;3.72;;;6.50;99.90;;;;;;5083301;28;20033;-70
2022/01/15 00:54:58;;;;;;;5.35;3.40;;;6.50;99.90;;;;;;5081839;28;20036;-70
2022/01/15 00:57:24;;;;;;;8.10;3.92;;;6.50;99.90;;;;;;5082823;28;20113;-70
2022/01/15 00:59:50;;;;;;;8.95;4.45;;;6.50;99.90;;;;;;5088764;28;20130;-70
2022/01/15 01:02:16;;;;;;;7.30;4.25;;;6.50;99.90;;;;;;5087878;28;20090;-70
2022/01/15 01:04:42;;;;;;;7.15;4.20;;;6.50;99.90;;;;;;5087065;28;20199;-70
2022/01/15 01:07:08;;;;;;;10.75;4.78;;;7.10;99.90;;;;;;5088039;28;20509;-70
2022/01/15 01:12:30;;;;;;;6.35;3.58;;;6.50;99.90;;;;;;5084910;28;20135;-70
2022/01/15 01:22:58;;;;;;;7.25;4.60;;;6.50;99.90;;;;;;5076612;28;20827;-70
2022/01/15 01:25:34;;;;;;;9.68;4.38;;;6.50;99.90;;;;;;5066972;28;20039;-70
2022/01/15 01:28:07;;;;;;;7.25;4.45;;;6.90;99.90;;;;;;5085045;28;20031;-70
2022/01/15 01:30:47;;;;;;;7.30;3.90;;;6.50;99.90;;;;;;5080493;28;20403;-70
2022/01/15 01:34:04;;;;;;;7.95;4.38;;;7.20;99.90;;;;;;5080930;28;20093;-70
2022/01/15 01:38:53;;;;;;;;;;;6.50;99.90;;;;;;5086811;28;20048;-70
2022/01/15 01:41:21;;;;;;;8.13;4.50;;;6.50;99.90;;;;;;5084970;28;20002;-70
2022/01/15 01:43:53;;;;;;;9.38;4.80;;;6.40;99.90;;;;;;5084070;28;20054;-70
2022/01/15 01:48:49;;;;;;;7.38;4.40;;;6.50;99.90;;;;;;5084232;28;20123;-70
2022/01/15 01:51:29;;;;;;;6.93;4.00;;;6.50;99.90;;;;;;5070384;28;20119;-70
2022/01/15 01:53:57;;;;;;;7.43;4.30;;;6.50;99.90;;;;;;5083881;28;20036;-70
2022/01/15 01:56:22;;;;;;;6.38;4.00;;;6.50;99.90;;;;;;5083463;28;20032;-70
2022/01/15 01:58:48;;;;;;;5.93;4.00;;;6.50;99.90;;;;;;5081925;28;20059;-70
2022/01/15 02:01:14;;;;;;;7.80;4.15;;;6.40;99.90;;;;;;5082262;28;20074;-70
2022/01/15 02:03:40;;;;;;;6.40;3.80;;;6.80;99.90;;;;;;5085970;28;20063;-70
2022/01/15 02:06:06;;;;;;;7.28;4.32;;;6.40;99.90;;;;;;5095487;28;20119;-70
2022/01/15 02:08:34;;;;;;;7.00;4.20;;;6.40;99.90;;;;;;5085725;28;20146;-70
2022/01/15 02:11:05;;;;;;;6.43;4.25;;;6.40;99.90;;;;;;5074067;28;20110;-70
2022/01/15 02:13:31;;;;;;;;;;;7.00;99.90;;;;;;5086111;28;20035;-70
2022/01/15 02:16:01;;;;;;;6.65;4.13;;;6.40;99.90;;;;;;5065733;28;20009;-70
2022/01/15 02:18:28;;;;;;;7.00;4.30;;;6.40;99.90;;;;;;5073131;28;20091;-70
2022/01/15 02:23:32;;;;;;;7.97;4.35;;;6.40;99.90;;;;;;5086086;28;20121;-70
2022/01/15 02:23:52;;;;;;;9.90;4.68;;;6.40;99.90;;;;;;5088426;28;20055;-70
2022/01/15 02:26:19;;;;;;;10.05;4.45;;;6.50;99.90;;;;;;5089357;28;20046;-70
2022/01/15 02:28:52;;;;;;;7.68;4.75;;;6.40;99.90;;;;;;5088193;28;20043;-70
2022/01/15 02:31:19;;;;;;;8.45;4.50;;;6.40;99.90;;;;;;5086562;28;20042;-70
2022/01/15 02:33:47;;;;;;;5.60;3.10;;;6.40;99.90;;;;;;5068889;28;20038;-70
2022/01/15 02:36:25;;;;;;;5.28;2.75;;;6.40;99.90;;;;;;5082111;28;20131;-70
2022/01/15 02:38:52;;;;;;;4.60;2.72;;;6.40;99.90;;;;;;5086512;28;20086;-70
2022/01/15 02:41:26;;;;;;;5.97;3.00;;;6.40;99.90;;;;;;5087164;28;20039;-70
2022/01/15 02:43:53;;;;;;;6.95;3.13;;;6.40;99.90;;;;;;5089105;28;20097;-70
2022/01/15 02:46:20;;;;;;;8.95;3.33;;;6.30;99.90;;;;;;5072959;28;20039;-70
2022/01/15 02:48:48;;;;;;;4.38;2.28;;;6.40;99.90;;;;;;5069001;28;20377;-70
2022/01/15 02:51:15;;;;;;;4.38;1.83;;;6.30;99.90;;;;;;5070450;28;20044;-70
2022/01/15 02:53:41;;;;;;;5.10;2.28;;;6.80;99.90;;;;;;5081789;28;20336;-70
2022/01/15 02:56:09;;;;;;;5.72;2.50;;;6.50;99.90;;;;;;5084264;28;20062;-70
2022/01/15 02:58:35;;;;;;;5.40;2.30;;;6.30;99.90;;;;;;5085714;28;20534;-70
2022/01/15 03:01:00;;;;;;;5.35;2.17;;;6.30;99.90;;;;;;5077687;28;20109;-70
2022/01/15 03:03:26;;;;;;;4.30;2.10;;;6.30;99.90;;;;;;5085963;28;20407;-70
2022/01/15 03:05:52;;;;;;;5.43;2.28;;;6.30;99.90;;;;;;5079003;28;20039;-70
2022/01/15 03:08:18;;;;;;;4.57;2.15;;;6.30;99.90;;;;;;5088909;28;20054;-70
2022/01/15 03:10:43;;;;;;;4.60;2.08;;;6.60;99.90;;;;;;5085258;28;20043;-70
2022/01/15 03:13:12;;;;;;;5.68;1.67;;;6.30;99.90;;;;;;5069003;28;20161;-70
2022/01/15 03:15:38;;;;;;;4.00;1.65;;;6.30;99.90;;;;;;5089550;28;20036;-70
2022/01/15 03:18:04;;;;;;;7.35;1.63;;;6.20;99.90;;;;;;5086528;28;20043;-70
2022/01/15 03:20:30;;;;;;;3.20;1.60;;;6.30;99.90;;;;;;5089433;28;20059;-70
2022/01/15 03:22:56;;;;;;;2.28;1.20;;;6.20;99.90;;;;;;5086375;28;20035;-70
2022/01/15 03:25:22;;;;;;;2.92;1.23;;;6.20;99.90;;;;;;5070618;28;20046;-70
2022/01/15 03:27:47;;;;;;;3.55;1.10;;;6.20;99.90;;;;;;5088200;28;20119;-70
2022/01/15 03:30:13;;;;;;;3.83;1.17;;;6.20;99.90;;;;;;5074511;28;20036;-70
2022/01/15 03:32:43;;;;;;;3.15;1.45;;;6.20;99.90;;;;;;5088458;28;20449;-70
2022/01/15 03:35:15;;;;;;;5.55;1.40;;;6.10;99.90;;;;;;5067436;28;20074;-70
2022/01/15 03:37:42;;;;;;;2.85;1.25;;;6.20;99.90;;;;;;5082594;28;20464;-70
2022/01/15 03:40:10;;;;;;;1.80;1.10;;;6.20;99.90;;;;;;5066280;28;20552;-70
2022/01/15 03:42:36;;;;;;;1.95;1.10;;;6.20;99.90;;;;;;5064227;28;20063;-70
2022/01/15 03:45:04;;;;;;;2.92;1.35;;;6.20;99.90;;;;;;5073238;28;20120;-70
2022/01/15 03:47:30;;;;;;;3.55;1.38;;;6.20;99.90;;;;;;5072313;28;20749;-70
2022/01/15 03:49:55;;;;;;;3.15;1.50;;;6.10;99.90;;;;;;5055125;28;20072;-70
2022/01/15 03:52:21;;;;;;;4.43;1.70;;;6.10;99.90;;;;;;5056506;28;20028;-70
2022/01/15 03:54:47;;;;;;;3.53;2.20;;;6.20;99.90;;;;;;5091083;28;20565;-70
2022/01/15 03:57:12;;;;;;;4.72;2.00;;;6.10;99.90;;;;;;5088781;28;20050;-69
2022/01/15 03:59:40;;;;;;;3.78;1.90;;;6.10;99.90;;;;;;5071177;28;20047;-69
2022/01/15 04:02:07;;;;;;;5.03;2.55;;;6.20;99.90;;;;;;5076106;28;20173;-69
2022/01/15 04:04:32;;;;;;;5.53;2.58;;;6.10;99.90;;;;;;5092393;28;20058;-69
2022/01/15 04:06:58;;;;;;;5.43;2.20;;;6.70;99.90;;;;;;5076863;28;20040;-69
2022/01/15 04:09:24;;;;;;;5.80;2.72;;;6.20;99.90;;;;;;5105849;28;20136;-69
2022/01/15 04:11:50;;;;;;;7.10;3.30;;;6.20;99.90;;;;;;5091867;28;20043;-69
2022/01/15 04:14:15;;;;;;;6.65;4.03;;;6.20;99.90;;;;;;5077503;28;20506;-69
2022/01/15 04:16:41;;;;;;;6.25;3.25;;;6.20;99.90;;;;;;5092084;28;20086;-69
2022/01/15 04:19:07;;;;;;;6.88;3.70;;;6.20;99.90;;;;;;5076885;28;20042;-69
2022/01/15 04:21:35;;;;;;;9.35;4.25;;;6.20;99.90;;;;;;5092484;28;20079;-69
2022/01/15 04:24:01;;;;;;;7.95;3.97;;;6.20;99.90;;;;;;5079824;28;20040;-69
2022/01/15 04:26:27;;;;;;;9.80;3.95;;;6.20;99.90;;;;;;5095757;28;20040;-69
2022/01/15 04:28:54;;;;;;;9.10;4.18;;;6.10;99.90;;;;;;5093236;28;20036;-69
2022/01/15 04:31:20;;;;;;;9.13;4.53;;;6.70;99.90;;;;;;5084656;28;20483;-69
2022/01/15 04:33:45;;;;;;;11.50;4.43;;;6.10;99.90;;;;;;5073963;28;20115;-69
2022/01/15 04:36:11;;;;;;;9.38;4.78;;;6.10;99.90;;;;;;5083499;28;20078;-69
2022/01/15 04:38:38;;;;;;;13.70;4.68;;;6.10;99.90;;;;;;5088959;28;20079;-69
2022/01/15 04:41:08;;;;;;;12.85;4.95;;;6.10;99.90;;;;;;5087160;28;20039;-69
2022/01/15 04:43:34;;;;;;;9.90;5.63;;;6.10;99.90;;;;;;5085313;28;20366;-69
2022/01/15 04:46:01;;;;;;;11.50;5.78;;;6.10;99.90;;;;;;5087338;28;20044;-69
2022/01/15 04:48:27;;;;;;;12.80;5.78;;;6.10;99.90;;;;;;5089760;28;20032;-69
2022/01/15 04:50:53;;;;;;;11.18;5.57;;;6.10;99.90;;;;;;5073837;28;20039;-69
2022/01/15 04:53:19;;;;;;;9.57;5.05;;;6.10;99.90;;;;;;5073237;28;20040;-69
2022/01/15 04:55:45;;;;;;;11.63;5.22;;;6.10;99.90;;;;;;5083105;28;20126;-69
2022/01/15 04:58:11;;;;;;;10.32;4.90;;;6.10;99.90;;;;;;5071687;28;20056;-69
2022/01/15 05:00:37;;;;;;;8.25;4.13;;;6.10;99.90;;;;;;5091754;28;20044;-69
2022/01/15 05:03:03;;;;;;;4.18;2.30;;;6.10;99.90;;;;;;5096009;28;20371;-69
2022/01/15 05:05:30;;;;;;;5.97;2.63;;;6.10;99.90;;;;;;5085324;28;20513;-69
2022/01/15 05:07:56;;;;;;;3.15;2.13;;;6.00;99.90;;;;;;5084807;28;20065;-69
2022/01/15 05:10:27;;;;;;;4.38;2.50;;;6.00;99.90;;;;;;5090668;28;20134;-69
2022/01/15 05:12:58;;;;;;;3.90;2.40;;;6.00;99.90;;;;;;5072128;28;20415;-69
2022/01/15 05:15:24;;;;;;;4.80;2.60;;;6.00;99.90;;;;;;5085846;28;20050;-69
2022/01/15 05:17:51;;;;;;;3.88;2.70;;;6.00;99.90;;;;;;5091349;28;20039;-69
2022/01/15 05:20:18;;;;;;;3.90;1.95;;;6.10;99.90;;;;;;5074618;28;20400;-69
2022/01/15 05:22:48;;;;;;;4.03;1.77;;;6.30;99.90;;;;;;5085127;28;20086;-69
2022/01/15 05:25:16;;;;;;;3.88;2.38;;;5.90;99.90;;;;;;5069517;28;20162;-69
2022/01/15 05:27:43;;;;;;;4.00;2.00;;;5.90;99.90;;;;;;5087412;28;20040;-69
2022/01/15 05:30:10;;;;;;;4.90;2.40;;;5.90;99.90;;;;;;5065681;28;20668;-69
2022/01/15 05:32:35;;;;;;;4.90;2.17;;;5.90;99.90;;;;;;5089926;28;20571;-69
2022/01/15 05:35:01;;;;;;;4.88;2.58;;;5.90;99.90;;;;;;5093071;28;20043;-69
2022/01/15 05:37:27;;;;;;;4.82;2.35;;;5.90;99.90;;;;;;5083343;28;20067;-69
2022/01/15 05:39:54;;;;;;;4.70;2.40;;;5.90;99.90;;;;;;5071754;28;20365;-69
2022/01/15 05:42:20;;;;;;;5.45;2.50;;;5.90;99.90;;;;;;5090793;28;20067;-69
2022/01/15 05:44:45;;;;;;;4.07;2.30;;;5.80;99.90;;;;;;5090605;28;20752;-69
2022/01/15 05:47:11;;;;;;;4.57;2.55;;;5.90;99.90;;;;;;5081078;28;20098;-69
2022/01/15 05:49:37;;;;;;;4.90;3.00;;;6.30;99.90;;;;;;5067894;28;20527;-69
2022/01/15 05:52:04;;;;;;;5.32;2.45;;;5.90;99.90;;;;;;5086502;28;20024;-69
2022/01/15 05:54:30;;;;;;;3.55;2.10;;;5.80;99.90;;;;;;5080679;28;20062;-69
2022/01/15 05:56:55;;;;;;;4.35;2.10;;;5.80;99.90;;;;;;5089180;28;20044;-70
2022/01/15 05:59:21;;;;;;;4.63;2.50;;;5.80;99.90;;;;;;5088032;28;20097;-70
2022/01/15 06:01:47;;;;;;;3.90;2.67;;;5.80;99.90;;;;;;5067410;28;20134;-70
2022/01/15 06:04:13;;;;;;;5.32;2.58;;;6.40;99.90;;;;;;5092283;28;20120;-70
2022/01/15 06:06:39;;;;;;;5.00;2.90;;;6.30;99.90;;;;;;5085135;28;20487;-70
2022/01/15 06:09:04;;;;;;;4.30;2.42;;;5.90;99.90;;;;;;5079209;28;20039;-70
2022/01/15 06:11:31;;;;;;;4.05;2.38;;;6.20;99.90;;;;;;5088090;28;20036;-70
2022/01/15 06:13:56;;;;;;;4.60;2.53;;;5.80;99.90;;;;;;5081064;28;20078;-70
2022/01/15 06:16:23;;;;;;;4.43;2.45;;;5.80;99.90;;;;;;5086777;28;20082;-70
2022/01/15 06:18:49;;;;;;;3.83;2.30;;;5.80;99.90;;;;;;5054897;28;20432;-70
2022/01/15 06:21:15;;;;;;;4.28;2.60;;;5.80;99.90;;;;;;5081834;28;20089;-69
2022/01/15 06:23:41;;;;;;;4.70;2.63;;;6.20;99.90;;;;;;5083160;28;20074;-69
2022/01/15 06:26:07;;;;;;;5.65;2.50;;;5.90;99.90;;;;;;5089284;28;20051;-70
2022/01/15 06:28:33;;;;;;;5.50;2.80;;;5.80;99.90;;;;;;5072080;28;20036;-69
2022/01/15 06:30:59;;;;;;;4.90;2.50;;;5.80;99.90;;;;;;5078970;28;20415;-69
2022/01/15 06:33:25;;;;;;;4.35;2.50;;;5.80;99.90;;;;;;5086006;28;20096;-69
2022/01/15 06:35:50;;;;;;;5.22;2.75;;;5.80;99.90;;;;;;5083752;28;20096;-69
2022/01/15 06:38:16;;;;;;;5.30;2.65;;;5.80;99.90;;;;;;5077611;28;20047;-69
2022/01/15 06:40:42;;;;;;;4.82;2.78;;;5.80;99.90;;;;;;5076340;28;20055;-69
2022/01/15 06:43:07;;;;;;;5.57;2.97;;;5.80;99.90;;;;;;5071330;28;20054;-69
2022/01/15 06:45:34;;;;;;;4.85;2.70;;;5.80;99.90;;;;;;5084257;28;20051;-69
2022/01/15 06:48:01;;;;;;;6.85;3.58;;;5.80;99.90;;;;;;5057940;28;20509;-70
2022/01/15 06:50:28;;;;;;;6.28;3.25;;;5.80;99.90;;;;;;5078870;28;20039;-70
2022/01/15 06:52:54;;;;;;;5.95;2.83;;;5.80;99.90;;;;;;5087965;28;20071;-69
2022/01/15 06:55:20;;;;;;;6.40;3.45;;;5.80;99.90;;;;;;5086305;28;20050;-69
2022/01/15 06:57:46;;;;;;;6.63;2.92;;;5.70;99.90;;;;;;5078975;28;20047;-68
2022/01/15 07:00:14;;;;;;;8.20;3.47;;;5.80;99.90;;;;;;5083431;28;20070;-69
2022/01/15 07:02:40;;;;;;;7.60;3.65;;;5.80;99.90;;;;;;5084990;28;20039;-69
2022/01/15 07:05:07;;;;;;;7.22;3.47;;;5.90;99.90;;;;;;5055344;28;20052;-68
2022/01/15 07:07:35;;;;;;;6.55;3.20;;;5.80;99.90;;;;;;5061498;28;20407;-68
2022/01/15 07:10:01;;;;;;;6.68;3.38;;;5.80;99.90;;;;;;5069825;28;20036;-69
2022/01/15 07:12:27;;;;;;;6.78;3.58;;;5.80;99.90;;;;;;5091312;28;20096;-69
2022/01/15 07:14:53;;;;;;;8.73;3.67;;;5.80;99.90;;;;;;5082517;28;20040;-69
2022/01/15 07:17:18;;;;;;;6.10;3.42;;;5.70;99.90;;;;;;5073719;28;20062;-69
2022/01/15 07:19:44;;;;;;;7.93;3.85;;;6.50;99.90;;;;;;5090454;28;20434;-69
2022/01/15 07:22:10;;;;;;;9.20;4.13;;;5.70;99.90;;;;;;5089135;28;20035;-70
2022/01/15 07:24:36;;;;;;;9.57;3.97;;;5.80;99.90;;;;;;5070229;28;20376;-70
2022/01/15 07:27:02;;;;;;;6.72;3.85;;;5.70;99.90;;;;;;5090189;28;20141;-70
2022/01/15 07:29:30;;;;;;;6.25;3.53;;;5.70;99.90;;;;;;5056334;28;20028;-70
2022/01/15 07:31:56;;;;;;;7.72;3.83;;;5.80;99.90;;;;;;5094243;28;20043;-70
2022/01/15 07:34:22;;;;;;;8.25;4.22;;;5.90;99.90;;;;;;5084129;28;20247;-69
2022/01/15 07:36:53;;;;;;;9.18;3.92;;;5.70;99.90;;;;;;5087611;28;20126;-70
2022/01/15 07:39:19;;;;;;;6.63;3.67;;;5.70;99.90;;;;;;5088741;28;20518;-69
2022/01/15 07:41:45;;;;;;;6.18;3.38;;;5.70;99.90;;;;;;5065369;28;20039;-69
2022/01/15 07:44:11;;;;;;;8.45;3.67;;;5.70;99.90;;;;;;5068778;28;20055;-70
2022/01/15 07:46:37;;;;;;;6.05;3.63;;;5.70;99.90;;;;;;5091562;28;20036;-69
2022/01/15 07:49:03;;;;;;;7.22;3.40;;;5.90;99.90;;;;;;5086659;28;20035;-70
2022/01/15 07:51:29;;;;;;;5.38;2.90;;;5.70;99.90;;;;;;5078693;28;20038;-69
2022/01/15 07:53:55;;;;;;;4.43;2.20;;;5.80;99.90;;;;;;5074962;28;20043;-69
2022/01/15 07:56:21;;;;;;;5.55;2.35;;;5.70;99.90;;;;;;5085491;28;20039;-70
2022/01/15 07:58:47;;;;;;;5.25;2.58;;;5.70;99.90;;;;;;5082640;28;20159;-70
2022/01/15 08:01:13;;;;;;;5.97;2.90;;;5.70;99.90;;;;;;5089608;28;20571;-70
2022/01/15 08:03:40;;;;;;;5.45;2.40;;;5.70;99.90;;;;;;5083083;28;20055;-69
2022/01/15 08:06:07;;;;;;;6.72;3.55;;;5.70;99.90;;;;;;5085008;28;20040;-70
2022/01/15 08:08:33;;;;;;;5.90;2.78;;;5.70;99.90;;;;;;5086386;28;20031;-69
2022/01/15 08:10:59;;;;;;;6.28;3.63;;;5.70;99.90;;;;;;5070064;28;20028;-69
2022/01/15 08:13:26;;;;;;;7.00;3.45;;;6.50;99.90;;;;;;5079730;28;21069;-69
2022/01/15 08:15:52;;;;;;;6.80;3.58;;;5.70;99.90;;;;;;5091398;28;20039;-70
2022/01/15 08:18:21;;;;;;;10.43;4.50;;;5.90;99.90;;;;;;5053499;28;20101;-70
2022/01/15 08:20:47;;;;;;;10.43;4.10;;;5.70;99.90;;;;;;5066248;28;20309;-70
2022/01/15 08:23:13;;;;;;;10.57;4.63;;;5.70;99.90;;;;;;5090664;28;20083;-70
2022/01/15 08:25:39;;;;;;;11.10;5.28;;;5.70;99.90;;;;;;5083771;28;20073;-70
2022/01/15 08:28:05;;;;;;;11.45;5.18;;;5.70;99.90;;;;;;5082203;28;20079;-70
2022/01/15 08:30:31;;;;;;;10.85;5.28;;;5.70;99.90;;;;;;5080900;28;20059;-70
2022/01/15 08:32:57;;;;;;;10.73;5.40;;;5.70;99.90;;;;;;5091994;28;20086;-69
2022/01/15 08:35:22;;;;;;;11.32;5.82;;;5.70;99.90;;;;;;5087577;28;20067;-69
2022/01/15 08:37:48;;;;;;;9.55;5.20;;;5.70;99.90;;;;;;5070520;28;20047;-69
2022/01/15 08:40:16;;;;;;;9.88;5.45;;;5.70;99.90;;;;;;5072276;28;20043;-69
2022/01/15 08:42:42;;;;;;;10.73;6.00;;;5.70;99.90;;;;;;5090136;28;20044;-69
2022/01/15 08:45:10;;;;;;;12.80;5.68;;;5.60;99.90;;;;;;5086400;28;20047;-69
2022/01/15 08:47:36;;;;;;;13.43;5.68;;;5.70;99.90;;;;;;5071330;28;20039;-69
2022/01/15 08:50:02;;;;;;;9.98;5.28;;;5.70;99.90;;;;;;5085438;28;20043;-69
2022/01/15 08:52:28;;;;;;;12.93;6.05;;;5.70;99.90;;;;;;5072952;28;20031;-69
2022/01/15 08:54:53;;;;;;;13.27;6.82;;;5.70;99.90;;;;;;5082901;28;20082;-69
2022/01/15 08:57:19;;;;;;;9.98;5.63;;;5.80;99.90;;;;;;5083606;28;20046;-69
2022/01/15 08:59:45;;;;;;;11.05;6.28;;;5.70;99.90;;;;;;5082942;28;20048;-69
2022/01/15 09:02:11;;;;;;;12.55;6.57;;;5.80;99.90;;;;;;5048220;28;20036;-69
2022/01/15 09:04:37;;;;;;;12.50;6.45;;;5.80;99.90;;;;;;5061586;28;20115;-70
2022/01/15 09:07:03;;;;;;;16.38;8.30;;;5.80;99.90;;;;;;5082304;28;20181;-70
2022/01/15 09:09:29;;;;;;;16.33;8.35;;;5.90;99.90;;;;;;5089015;28;20044;-70
2022/01/15 09:11:55;;;;;;;19.23;11.07;;;5.80;99.90;;;;;;5083923;28;20036;-70
2022/01/15 09:14:20;;;;;;;23.05;12.43;;;5.80;99.90;;;;;;5077701;28;20463;-70
2022/01/15 09:16:46;;;;;;;19.27;10.55;;;5.80;99.90;;;;;;5085374;28;20491;-70
2022/01/15 09:19:12;;;;;;;18.85;9.98;;;5.80;99.90;;;;;;5051822;28;20099;-70
2022/01/15 09:21:37;;;;;;;20.63;10.57;;;5.80;99.90;;;;;;5066319;28;20036;-70
2022/01/15 09:24:04;;;;;;;17.83;10.23;;;6.40;99.90;;;;;;5065934;28;20686;-69
2022/01/15 09:26:48;;;;;;;16.83;9.27;;;5.90;99.90;;;;;;5080779;28;20042;-69
2022/01/15 09:32:00;;;;;;;14.80;8.13;;;5.80;99.90;;;;;;5078378;28;20043;-69
2022/01/15 09:34:26;;;;;;;13.63;8.07;;;5.80;99.90;;;;;;5080771;28;20122;-69
2022/01/15 09:36:52;;;;;;;13.23;7.55;;;5.70;99.90;;;;;;5079338;28;20040;-69
2022/01/15 09:39:19;;;;;;;13.15;7.03;;;5.80;99.90;;;;;;5083787;28;20501;-69
2022/01/15 09:41:48;;;;;;;12.70;7.85;;;5.70;99.90;;;;;;5086456;28;20063;-69
2022/01/15 09:44:17;;;;;;;13.73;7.55;;;5.80;99.90;;;;;;5074528;28;20047;-70
2022/01/15 09:46:45;;;;;;;14.18;8.07;;;5.70;99.90;;;;;;5083929;28;20389;-70
2022/01/15 09:49:13;;;;;;;17.25;8.40;;;5.70;99.90;;;;;;5074556;28;20036;-70
2022/01/15 09:51:39;;;;;;;13.35;6.72;;;5.70;99.90;;;;;;5071851;28;20067;-69
2022/01/15 09:54:04;;;;;;;13.52;8.10;;;5.70;99.90;;;;;;5072550;28;20082;-69
2022/01/15 09:56:30;;;;;;;13.40;7.40;;;5.70;99.90;;;;;;5084400;28;20472;-69
2022/01/15 09:58:58;;;;;;;14.48;8.02;;;6.20;99.90;;;;;;5080642;28;20565;-69
2022/01/15 10:01:28;;;;;;;14.25;7.82;;;5.80;99.90;;;;;;5080273;28;20526;-69
2022/01/15 10:03:53;;;;;;;14.63;8.93;;;5.70;99.90;;;;;;5066822;28;20274;-69
2022/01/15 10:06:19;;;;;;;13.70;7.60;;;5.80;99.90;;;;;;5072203;28;20067;-69
2022/01/15 10:09:08;;;;;;;16.63;8.85;;;5.80;99.90;;;;;;5067865;28;20720;-69
2022/01/15 10:11:41;;;;;;;16.33;8.98;;;6.40;99.90;;;;;;5077290;28;20051;-69
2022/01/15 10:14:32;;;;;;;14.77;9.00;;;5.70;99.90;;;;;;5081283;28;20035;-69
2022/01/15 10:16:59;;;;;;;;;;;5.70;99.90;;;;;;5074209;28;20032;-69
2022/01/15 10:19:28;;;;;;;14.95;8.32;;;5.70;99.90;;;;;;5079782;28;20290;-68
2022/01/15 10:22:17;;;;;;;13.68;8.60;;;5.70;99.90;;;;;;5079145;28;20687;-69
2022/01/15 10:24:58;;;;;;;15.40;9.43;;;5.70;99.90;;;;;;5079356;28;20036;-69
2022/01/15 10:27:31;;;;;;;14.20;7.78;;;5.60;99.90;;;;;;5061525;28;20035;-69
2022/01/15 10:29:56;;;;;;;13.90;8.82;;;5.60;99.90;;;;;;5076377;28;20044;-69
2022/01/15 10:32:24;;;;;;;14.48;8.60;;;5.60;99.90;;;;;;5084506;28;20032;-69
2022/01/15 10:34:51;;;;;;;14.30;8.63;;;6.00;99.90;;;;;;5091385;28;20411;-69
2022/01/15 10:37:36;;;;;;;15.10;9.20;;;5.70;99.90;;;;;;5054105;28;20051;-69
2022/01/15 10:40:06;;;;;;;14.75;8.68;;;5.60;99.90;;;;;;5089470;28;20040;-69
2022/01/15 10:42:33;;;;;;;14.68;9.13;;;5.70;99.90;;;;;;5086453;28;20071;-69
2022/01/15 10:45:07;;;;;;;12.48;8.07;;;5.60;99.90;;;;;;5062095;28;20043;-69
2022/01/15 10:47:49;;;;;;;12.27;8.55;;;5.70;99.90;;;;;;5088796;28;20110;-69
2022/01/15 10:50:21;;;;;;;14.55;9.70;;;5.70;99.90;;;;;;5085969;28;20411;-69
2022/01/15 10:52:47;;;;;;;14.77;10.02;;;5.60;99.90;;;;;;5083940;28;20097;-69
2022/01/15 10:55:15;;;;;;;15.48;10.50;;;5.70;99.90;;;;;;5082893;28;20040;-69
2022/01/15 10:58:03;;;;;;;16.60;11.02;;;5.60;99.90;;;;;;5072818;28;20043;-69
2022/01/15 11:00:41;;;;;;;14.70;9.88;;;5.60;99.90;;;;;;5081305;28;20052;-69
2022/01/15 11:03:12;;;;;;;14.93;10.35;;;5.70;99.90;;;;;;5083905;28;20125;-70
2022/01/15 11:05:39;;;;;;;16.77;11.30;;;5.90;99.90;;;;;;5081188;28;20144;-71
2022/01/15 11:08:09;;;;;;;15.45;10.63;;;5.70;99.90;;;;;;5083784;28;20039;-70
2022/01/15 11:10:41;;;;;;;17.00;10.73;;;5.70;99.90;;;;;;5084368;28;20070;-69
2022/01/15 11:13:10;;;;;;;14.48;10.35;;;5.70;99.90;;;;;;5084068;28;20745;-70
2022/01/15 11:15:37;;;;;;;15.52;10.85;;;5.60;99.90;;;;;;5087429;28;20117;-69
2022/01/15 11:18:04;;;;;;;18.23;11.68;;;5.60;99.90;;;;;;5085118;28;20070;-69
2022/01/15 11:20:32;;;;;;;15.25;10.23;;;5.60;99.90;;;;;;5105798;28;20491;-69
2022/01/15 11:23:02;;;;;;;17.33;10.98;;;5.70;99.90;;;;;;5070875;28;20061;-69
2022/01/15 11:25:29;;;;;;;18.20;11.45;;;5.60;99.90;;;;;;5080388;28;20035;-69
2022/01/15 11:27:57;;;;;;;17.67;10.77;;;5.60;99.90;;;;;;5080227;28;20085;-69
2022/01/15 11:30:23;;;;;;;20.10;12.70;;;5.60;99.90;;;;;;5083198;28;20067;-69
2022/01/15 11:32:50;;;;;;;18.23;11.23;;;5.40;99.90;;;;;;5085599;28;20027;-69
2022/01/15 11:35:15;;;;;;;17.48;10.90;;;5.50;99.90;;;;;;5077410;28;20067;-69
2022/01/15 11:37:46;;;;;;;19.02;11.95;;;5.70;99.90;;;;;;5069980;28;20068;-70
2022/01/15 11:40:35;;;;;;;18.30;11.63;;;5.60;99.90;;;;;;5079067;28;20036;-70
2022/01/15 11:43:25;;;;;;;20.02;11.90;;;5.60;99.90;;;;;;5064760;28;20035;-69
2022/01/15 11:45:57;;;;;;;18.42;11.65;;;5.60;99.90;;;;;;5082992;28;20509;-69
2022/01/15 11:48:25;;;;;;;24.20;12.02;;;5.60;99.90;;;;;;5087461;28;20032;-70
2022/01/15 11:51:17;;;;;;;26.00;14.57;;;5.90;99.90;;;;;;5082712;28;20035;-70
2022/01/15 11:53:47;;;;;;;21.42;13.65;;;5.50;99.90;;;;;;5080616;28;20139;-71
2022/01/15 11:56:17;;;;;;;18.58;12.70;;;5.40;99.90;;;;;;5077768;28;20036;-71
2022/01/15 11:58:43;;;;;;;20.58;11.48;;;5.50;99.90;;;;;;5065575;28;20472;-71
2022/01/15 12:01:34;;;;;;;25.05;13.05;;;5.50;99.90;;;;;;5085876;28;20126;-70
2022/01/15 12:04:19;;;;;;;;;;;5.50;99.90;;;;;;5082052;28;20490;-71
2022/01/15 12:07:03;;;;;;;21.85;13.40;;;5.50;99.90;;;;;;5083555;28;20364;-70
2022/01/15 12:09:39;;;;;;;23.30;13.35;;;5.10;99.90;;;;;;5085478;28;20384;-70
2022/01/15 12:12:41;;;;;;;24.60;14.00;;;5.40;99.90;;;;;;5104143;28;20040;-70
2022/01/15 12:15:17;;;;;;;22.83;14.55;;;5.40;99.90;;;;;;5075871;28;20440;-70
2022/01/15 12:18:05;;;;;;;22.00;14.30;;;5.40;99.90;;;;;;5082815;28;20040;-70
2022/01/15 12:20:34;;;;;;;20.73;13.15;;;5.40;99.90;;;;;;5076232;28;20040;-70
2022/01/15 12:23:19;;;;;;;22.55;13.63;;;5.50;99.90;;;;;;5088417;28;20119;-70
2022/01/15 12:25:47;;;;;;;23.55;13.48;;;5.40;99.90;;;;;;5090055;28;20105;-70
2022/01/15 12:28:15;;;;;;;22.08;12.15;;;5.40;99.90;;;;;;5091635;28;20475;-70
2022/01/15 12:30:51;;;;;;;21.55;12.23;;;5.40;99.90;;;;;;5071946;28;20074;-71
2022/01/15 12:33:19;;;;;;;23.02;14.20;;;5.40;99.90;;;;;;5086304;28;20042;-70
2022/01/15 12:35:51;;;;;;;22.55;12.40;;;5.50;99.90;;;;;;5086751;28;20054;-70
2022/01/15 12:38:28;;;;;;;22.65;13.70;;;5.40;99.90;;;;;;5078678;28;20044;-71
2022/01/15 12:41:06;;;;;;;22.05;13.65;;;5.30;99.90;;;;;;5089075;28;20472;-71
2022/01/15 12:43:44;;;;;;;21.00;13.10;;;5.30;99.90;;;;;;5093069;28;20043;-70
2022/01/15 12:46:18;;;;;;;21.80;12.50;;;5.30;99.90;;;;;;5080110;28;20436;-70
2022/01/15 12:48:46;;;;;;;23.17;14.27;;;5.60;99.90;;;;;;5091723;28;20426;-70
2022/01/15 12:51:14;;;;;;;23.35;13.82;;;5.30;99.90;;;;;;5091220;28;20122;-70
2022/01/15 12:53:44;;;;;;;22.92;14.32;;;5.30;99.90;;;;;;5085652;28;20038;-70
2022/01/15 12:56:17;;;;;;;24.00;15.38;;;5.20;99.90;;;;;;5079793;28;20053;-70
2022/01/15 12:58:44;;;;;;;23.70;14.70;;;5.20;99.90;;;;;;5078979;28;20326;-71
2022/01/15 13:01:11;;;;;;;24.02;14.10;;;5.20;99.90;;;;;;5074724;28;20156;-70
2022/01/15 13:03:40;;;;;;;27.02;15.45;;;5.20;99.90;;;;;;5075132;28;20441;-70
2022/01/15 13:06:07;;;;;;;28.90;16.10;;;5.20;99.90;;;;;;5081204;28;20051;-70
2022/01/15 13:08:43;;;;;;;24.95;14.38;;;5.30;99.90;;;;;;5083032;28;20096;-70
2022/01/15 13:13:43;;;;;;;24.45;14.52;;;5.30;99.90;;;;;;5085024;28;20044;-70
2022/01/15 13:16:17;;;;;;;22.25;13.02;;;5.30;99.90;;;;;;5088352;28;20376;-70
2022/01/15 13:18:55;;;;;;;25.30;15.40;;;5.30;99.90;;;;;;5089660;28;20049;-70
2022/01/15 13:21:23;;;;;;;24.00;14.13;;;5.20;99.90;;;;;;5081786;28;20396;-70